Time;durP1;ratioP1;P1;durP2;ratioP2;P2;SDS_P1;SDS_P2;PMS_P1;PMS_P2;Temp;Humidity;BMP_temperature;BMP_pressure;BME280_temperature;BME280_humidity;BME280_pressure;Samples;Min_cycle;Max_cycle;Signal;HPM_P1;HPM_P2
2023/10/13 00:00:29;;;;;;;17.85;13.40;;;17.30;99.90;;;;;;4986955;28;20040;-88
2023/10/13 00:03:00;;;;;;;17.45;13.30;;;17.30;99.90;;;;;;4993968;28;20080;-88
2023/10/13 00:05:30;;;;;;;19.73;14.10;;;17.30;99.90;;;;;;4995309;28;20088;-88
2023/10/13 00:08:00;;;;;;;25.45;13.23;;;17.40;99.90;;;;;;4991110;28;20026;-88
2023/10/13 00:10:33;;;;;;;19.17;13.23;;;17.30;99.90;;;;;;5006033;28;20391;-87
2023/10/13 00:13:12;;;;;;;21.98;13.45;;;17.30;99.90;;;;;;4987876;28;20026;-87
2023/10/13 00:16:00;;;;;;;21.45;12.57;;;17.40;99.90;;;;;;4998683;28;20025;-87
2023/10/13 00:18:30;;;;;;;18.38;12.75;;;17.30;99.90;;;;;;5000275;28;20457;-87
2023/10/13 00:20:56;;;;;;;19.90;13.65;;;17.30;99.90;;;;;;4989614;28;20045;-86
2023/10/13 00:23:22;;;;;;;20.00;13.30;;;17.30;99.90;;;;;;4990113;28;20124;-87
2023/10/13 00:25:59;;;;;;;19.95;13.13;;;17.30;99.90;;;;;;4992337;28;20057;-87
2023/10/13 00:28:26;;;;;;;18.67;11.73;;;17.30;99.90;;;;;;5008310;28;20239;-87
2023/10/13 00:30:59;;;;;;;18.00;12.13;;;17.30;99.90;;;;;;4990412;28;20057;-87
2023/10/13 00:33:25;;;;;;;19.75;12.48;;;17.30;99.90;;;;;;4992559;28;20053;-87
2023/10/13 00:35:57;;;;;;;17.65;11.05;;;17.30;99.90;;;;;;4991104;28;20064;-88
2023/10/13 00:38:24;;;;;;;15.85;11.63;;;17.30;99.90;;;;;;4991800;28;20054;-87
2023/10/13 00:40:52;;;;;;;16.83;11.60;;;17.30;99.90;;;;;;4992231;28;20041;-88
2023/10/13 00:45:57;;;;;;;19.48;11.57;;;17.40;99.90;;;;;;5012897;28;20482;-87
2023/10/13 00:48:29;;;;;;;18.65;11.40;;;17.30;99.90;;;;;;5010146;28;20152;-87
2023/10/13 00:50:57;;;;;;;16.25;10.98;;;17.30;99.90;;;;;;4995487;28;20104;-87
2023/10/13 00:53:25;;;;;;;19.30;11.73;;;17.30;99.90;;;;;;4989250;28;20032;-88
2023/10/13 00:55:50;;;;;;;17.85;11.70;;;17.30;99.90;;;;;;4995325;28;20042;-87
2023/10/13 00:58:21;;;;;;;20.20;12.45;;;17.30;99.90;;;;;;5010300;28;20022;-88
2023/10/13 01:00:55;;;;;;;20.02;12.20;;;17.30;99.90;;;;;;5009077;28;20058;-87
2023/10/13 01:03:25;;;;;;;22.55;11.95;;;17.30;99.90;;;;;;4991351;28;20030;-88
2023/10/13 01:05:54;;;;;;;18.25;11.00;;;17.30;99.90;;;;;;5009453;28;20030;-88
2023/10/13 01:08:34;;;;;;;18.77;11.73;;;17.30;99.90;;;;;;4983461;28;20026;-87
2023/10/13 01:11:00;;;;;;;14.88;9.98;;;17.30;99.90;;;;;;4988144;28;20117;-87
2023/10/13 01:13:26;;;;;;;19.20;10.20;;;17.40;99.90;;;;;;4988824;28;20117;-86
2023/10/13 01:15:52;;;;;;;18.13;11.20;;;17.40;99.90;;;;;;4987108;28;20453;-87
2023/10/13 01:18:18;;;;;;;13.75;10.40;;;17.40;99.90;;;;;;4993305;28;20065;-87
2023/10/13 01:20:45;;;;;;;14.90;10.13;;;17.40;99.90;;;;;;4993293;28;20029;-86
2023/10/13 01:23:23;;;;;;;17.45;10.27;;;17.40;99.90;;;;;;4993490;28;20084;-87
2023/10/13 01:25:49;;;;;;;15.30;9.88;;;17.40;99.90;;;;;;4991869;28;20041;-88
2023/10/13 01:28:17;;;;;;;16.25;9.77;;;17.40;99.90;;;;;;4991350;28;20026;-87
2023/10/13 01:30:49;;;;;;;16.30;9.48;;;17.40;99.90;;;;;;4984157;28;20046;-87
2023/10/13 01:33:26;;;;;;;;;;;17.40;99.90;;;;;;4988684;28;20031;-88
2023/10/13 01:35:53;;;;;;;16.52;8.15;;;17.40;99.90;;;;;;4988900;28;19963;-88
2023/10/13 01:38:18;;;;;;;14.10;8.55;;;17.30;99.90;;;;;;4991420;28;20084;-87
2023/10/13 01:40:44;;;;;;;14.40;7.93;;;17.30;99.90;;;;;;4995019;28;20037;-87
2023/10/13 01:43:11;;;;;;;13.77;8.00;;;17.30;99.90;;;;;;4993840;28;20083;-88
2023/10/13 01:45:49;;;;;;;19.95;8.48;;;17.20;99.90;;;;;;4992827;28;20109;-88
2023/10/13 01:48:16;;;;;;;15.38;7.50;;;17.30;99.90;;;;;;4994068;28;20474;-87
2023/10/13 01:50:47;;;;;;;13.60;7.75;;;17.30;99.90;;;;;;4993461;28;20084;-87
2023/10/13 01:53:13;;;;;;;14.85;7.88;;;17.20;99.90;;;;;;4983080;28;20037;-88
2023/10/13 01:55:42;;;;;;;15.13;7.78;;;17.20;99.90;;;;;;5009438;28;20474;-87
2023/10/13 01:58:15;;;;;;;18.92;9.30;;;17.20;99.90;;;;;;4988142;28;20022;-88
2023/10/13 02:00:45;;;;;;;14.77;7.65;;;17.20;99.90;;;;;;4992740;28;20038;-88
2023/10/13 02:03:16;;;;;;;12.43;7.13;;;17.20;99.90;;;;;;4993724;28;20014;-87
2023/10/13 02:05:49;;;;;;;19.98;7.80;;;17.20;99.90;;;;;;4991571;28;20061;-87
2023/10/13 02:08:24;;;;;;;13.15;7.63;;;17.20;99.90;;;;;;5006478;28;20045;-88
2023/10/13 02:10:51;;;;;;;17.17;7.95;;;17.20;99.90;;;;;;4993151;28;20061;-87
2023/10/13 02:13:18;;;;;;;14.50;7.35;;;17.20;99.90;;;;;;4989457;28;20089;-87
2023/10/13 02:15:48;;;;;;;11.45;5.90;;;17.20;99.90;;;;;;4991150;28;20034;-87
2023/10/13 02:19:04;;;;;;;17.45;7.75;;;17.10;99.90;;;;;;4993651;28;20030;-88
2023/10/13 02:21:12;;;;;;;11.40;6.68;;;17.10;99.90;;;;;;4986674;28;20419;-87
2023/10/13 02:23:43;;;;;;;17.02;7.13;;;17.10;99.90;;;;;;4994428;28;20030;-88
2023/10/13 02:28:56;;;;;;;11.02;5.80;;;17.10;99.90;;;;;;5013068;28;20092;-88
2023/10/13 02:31:24;;;;;;;14.02;5.60;;;17.10;99.90;;;;;;4985389;28;20069;-87
2023/10/13 02:33:49;;;;;;;9.70;5.20;;;17.10;99.90;;;;;;4996438;28;20072;-88
2023/10/13 02:36:22;;;;;;;9.75;5.43;;;17.10;99.90;;;;;;4997179;28;20029;-87
2023/10/13 02:38:50;;;;;;;9.27;5.90;;;17.10;99.90;;;;;;4997108;28;20474;-87
2023/10/13 02:41:28;;;;;;;9.98;5.30;;;17.10;99.90;;;;;;4995304;28;20037;-87
2023/10/13 02:43:55;;;;;;;10.40;5.07;;;17.10;99.90;;;;;;4993867;28;20033;-87
2023/10/13 02:46:22;;;;;;;9.80;5.97;;;17.10;99.90;;;;;;4992095;28;20057;-88
2023/10/13 02:48:53;;;;;;;8.40;5.10;;;17.10;99.90;;;;;;4979942;28;20117;-88
2023/10/13 02:51:35;;;;;;;11.57;6.50;;;17.10;99.90;;;;;;4979740;28;20027;-88
2023/10/13 02:54:11;;;;;;;12.35;5.45;;;17.10;99.90;;;;;;4993923;28;20427;-88
2023/10/13 02:56:38;;;;;;;13.65;5.53;;;17.10;99.90;;;;;;4995853;28;20026;-88
2023/10/13 02:59:06;;;;;;;11.40;5.97;;;17.00;99.90;;;;;;4986684;28;20125;-87
2023/10/13 03:01:35;;;;;;;13.93;6.32;;;17.10;99.90;;;;;;4990020;28;20393;-87
2023/10/13 03:04:08;;;;;;;12.80;6.28;;;17.00;99.90;;;;;;4994723;28;20034;-87
2023/10/13 03:06:34;;;;;;;11.05;5.68;;;17.00;99.90;;;;;;4996684;28;20034;-88
2023/10/13 03:09:18;;;;;;;12.60;6.57;;;17.10;99.90;;;;;;4995990;28;20026;-87
2023/10/13 03:11:48;;;;;;;14.77;7.10;;;17.10;99.90;;;;;;4995558;28;20076;-87
2023/10/13 03:14:24;;;;;;;11.75;6.50;;;17.00;99.90;;;;;;4992204;28;20112;-88
2023/10/13 03:17:03;;;;;;;11.65;6.95;;;17.00;99.90;;;;;;4991263;28;20042;-88
2023/10/13 03:19:32;;;;;;;13.27;6.97;;;17.00;99.90;;;;;;5008376;28;20060;-86
2023/10/13 03:22:16;;;;;;;13.20;7.47;;;17.00;99.90;;;;;;4993722;28;20061;-87
2023/10/13 03:24:49;;;;;;;13.98;8.20;;;17.00;99.90;;;;;;4994945;28;20026;-87
2023/10/13 03:27:17;;;;;;;13.98;7.80;;;17.00;99.90;;;;;;4983563;28;20031;-87
2023/10/13 03:29:44;;;;;;;13.35;7.47;;;17.00;99.90;;;;;;4996470;28;20069;-87
2023/10/13 03:32:11;;;;;;;14.65;8.25;;;17.00;99.90;;;;;;4994590;28;20026;-88
2023/10/13 03:34:46;;;;;;;15.15;9.23;;;17.00;99.90;;;;;;4992043;28;20026;-88
2023/10/13 03:37:17;;;;;;;17.15;9.50;;;17.00;99.90;;;;;;4987944;28;20068;-90
2023/10/13 03:39:45;;;;;;;17.35;9.40;;;17.00;99.90;;;;;;4994692;28;20037;-89
2023/10/13 03:42:18;;;;;;;16.25;10.02;;;17.00;99.90;;;;;;4994660;28;20406;-87
2023/10/13 03:44:46;;;;;;;15.65;9.50;;;17.00;99.90;;;;;;4996526;28;20034;-88
2023/10/13 03:47:18;;;;;;;16.67;9.25;;;17.00;99.90;;;;;;4996830;28;20026;-89
2023/10/13 03:49:44;;;;;;;16.40;9.95;;;17.00;99.90;;;;;;4986785;28;20026;-88
2023/10/13 03:52:13;;;;;;;21.80;12.02;;;17.00;99.90;;;;;;4995751;28;20030;-89
2023/10/13 03:54:40;;;;;;;16.13;10.38;;;17.00;99.90;;;;;;4994847;28;20060;-88
2023/10/13 03:57:11;;;;;;;17.42;10.73;;;17.10;99.90;;;;;;4992280;28;20028;-88
2023/10/13 03:59:38;;;;;;;17.52;11.40;;;17.00;99.90;;;;;;4992819;28;20032;-89
2023/10/13 04:02:11;;;;;;;18.35;12.10;;;17.10;99.90;;;;;;4994039;28;20057;-89
2023/10/13 04:04:51;;;;;;;20.05;12.15;;;17.10;99.90;;;;;;4995214;28;20034;-88
2023/10/13 04:11:40;;;;;;;20.67;12.73;;;17.10;99.90;;;;;;5014404;28;20037;-88
2023/10/13 04:16:14;;;;;;;23.30;13.98;;;17.10;99.90;;;;;;4954600;29;20034;-89
2023/10/13 04:21:39;;;;;;;27.73;14.77;;;17.10;99.90;;;;;;4989261;28;20065;-90
2023/10/13 04:32:28;;;;;;;27.63;18.15;;;17.10;99.90;;;;;;5010131;28;20030;-90
2023/10/13 04:37:50;;;;;;;28.23;17.42;;;17.20;99.90;;;;;;5009730;28;20029;-90
2023/10/13 04:40:19;;;;;;;33.97;18.45;;;17.20;99.90;;;;;;4995210;28;20029;-92
2023/10/13 04:42:49;;;;;;;26.58;18.95;;;17.20;99.90;;;;;;4996106;28;20034;-93
2023/10/13 04:50:47;;;;;;;29.70;19.23;;;17.30;99.90;;;;;;5010906;28;20021;-92
2023/10/13 04:53:59;;;;;;;31.25;19.20;;;17.40;99.90;;;;;;4981533;28;20030;-90
2023/10/13 04:56:53;;;;;;;32.17;19.85;;;17.40;99.90;;;;;;5010512;28;20036;-90
2023/10/13 04:59:17;;;;;;;28.77;19.02;;;17.40;99.90;;;;;;4993341;28;20080;-91
2023/10/13 05:04:38;;;;;;;32.10;20.08;;;17.50;99.90;;;;;;5006830;28;20049;-91
2023/10/13 05:45:40;;;;;;;16.20;10.45;;;18.00;99.90;;;;;;5000932;28;20041;-92
2023/10/13 05:48:13;;;;;;;16.27;9.00;;;18.00;99.90;;;;;;4994084;28;20037;-92
2023/10/13 05:51:32;;;;;;;14.65;8.93;;;18.00;99.90;;;;;;4990174;28;20025;-92
2023/10/13 06:29:19;;;;;;;10.40;6.60;;;18.10;99.90;;;;;;5014474;28;20148;-92
2023/10/13 06:31:45;;;;;;;11.43;6.88;;;18.20;99.90;;;;;;5004634;28;20038;-92
2023/10/13 06:34:15;;;;;;;10.32;7.28;;;18.10;99.90;;;;;;4995258;28;20121;-93
2023/10/13 06:36:41;;;;;;;14.77;7.38;;;18.20;99.90;;;;;;4994941;28;20500;-90
2023/10/13 06:39:34;;;;;;;11.13;7.60;;;18.20;99.90;;;;;;4997370;28;20113;-92
2023/10/13 06:42:00;;;;;;;12.48;6.90;;;18.20;99.90;;;;;;4988488;28;20035;-91
2023/10/13 06:44:26;;;;;;;15.48;7.30;;;18.20;99.90;;;;;;4992541;28;20030;-91
2023/10/13 06:46:52;;;;;;;11.13;7.47;;;18.30;99.90;;;;;;4995014;28;20387;-90
2023/10/13 06:49:18;;;;;;;18.02;7.90;;;18.30;99.90;;;;;;4988768;28;20097;-91
2023/10/13 06:51:46;;;;;;;10.50;7.10;;;18.30;99.90;;;;;;4993639;28;20073;-91
2023/10/13 06:54:21;;;;;;;12.75;7.90;;;18.30;99.90;;;;;;4995368;28;20045;-90
2023/10/13 06:56:52;;;;;;;13.32;7.60;;;18.30;99.90;;;;;;4990326;28;20105;-91
2023/10/13 06:59:17;;;;;;;11.82;7.47;;;18.30;99.90;;;;;;4996025;28;20121;-92
2023/10/13 07:01:44;;;;;;;13.07;7.65;;;18.30;99.90;;;;;;4996130;28;20102;-91
2023/10/13 07:04:13;;;;;;;12.65;8.10;;;18.30;99.90;;;;;;4995845;28;20406;-92
2023/10/13 07:06:48;;;;;;;11.40;7.20;;;18.20;99.90;;;;;;4981796;28;20022;-93
2023/10/13 07:12:03;;;;;;;12.88;7.68;;;18.20;99.90;;;;;;4998724;28;20497;-92
2023/10/13 07:14:33;;;;;;;13.55;6.90;;;18.20;99.90;;;;;;4995856;28;20058;-92
2023/10/13 07:17:04;;;;;;;14.93;7.70;;;18.20;99.90;;;;;;4998364;28;20022;-93
2023/10/13 07:19:30;;;;;;;17.55;7.38;;;18.10;99.90;;;;;;4996811;28;20073;-92
2023/10/13 07:22:19;;;;;;;15.65;8.48;;;18.10;99.90;;;;;;4996881;28;20042;-91
2023/10/13 07:24:50;;;;;;;12.27;7.38;;;18.20;99.90;;;;;;4996564;28;20038;-91
2023/10/13 07:27:25;;;;;;;14.00;7.20;;;18.20;99.90;;;;;;5000715;28;20033;-91
2023/10/13 07:30:13;;;;;;;14.68;7.82;;;18.20;99.90;;;;;;5003988;28;20035;-90
2023/10/13 07:32:45;;;;;;;14.50;6.97;;;18.20;99.90;;;;;;4996056;28;20029;-90
2023/10/13 07:35:19;;;;;;;10.10;7.00;;;18.20;99.90;;;;;;4996476;28;20069;-91
2023/10/13 07:37:48;;;;;;;12.52;6.78;;;18.30;99.90;;;;;;4996310;28;20034;-91
2023/10/13 07:43:05;;;;;;;15.40;6.05;;;18.30;99.90;;;;;;4997720;28;20065;-91
2023/10/13 07:45:36;;;;;;;18.95;7.43;;;18.30;99.90;;;;;;5004121;28;20162;-90
2023/10/13 07:48:19;;;;;;;14.02;6.85;;;18.30;99.90;;;;;;4996359;28;20026;-92
2023/10/13 07:50:45;;;;;;;11.25;6.00;;;18.30;99.90;;;;;;4993451;28;20064;-92
2023/10/13 07:53:23;;;;;;;13.70;6.97;;;18.30;99.90;;;;;;4996239;28;20022;-91
2023/10/13 07:55:55;;;;;;;16.75;6.95;;;18.30;99.90;;;;;;4996311;28;20027;-90
2023/10/13 07:58:24;;;;;;;13.48;6.60;;;18.40;99.90;;;;;;4995417;28;20033;-93
2023/10/13 08:03:34;;;;;;;13.48;6.68;;;18.40;99.90;;;;;;4997144;28;20034;-92
2023/10/13 08:06:18;;;;;;;13.63;6.43;;;18.40;99.90;;;;;;4995597;28;20125;-92
2023/10/13 08:08:49;;;;;;;12.80;5.75;;;18.40;99.90;;;;;;4991265;28;20471;-92
2023/10/13 08:11:24;;;;;;;15.32;5.72;;;18.50;99.90;;;;;;4984978;28;20030;-92
2023/10/13 08:13:58;;;;;;;15.93;6.30;;;18.50;99.90;;;;;;4995628;28;20022;-92
2023/10/13 08:16:30;;;;;;;13.93;5.30;;;18.60;99.90;;;;;;4995532;28;20026;-92
2023/10/13 08:18:56;;;;;;;;;;;18.70;99.90;;;;;;4995969;28;20027;-92
2023/10/13 08:21:25;;;;;;;14.43;6.13;;;18.70;99.90;;;;;;4994981;28;19937;-92
2023/10/13 08:26:29;;;;;;;12.07;5.53;;;18.90;99.90;;;;;;4996924;28;20026;-91
2023/10/13 08:29:49;;;;;;;15.57;5.57;;;19.00;99.90;;;;;;4995288;28;20026;-93
2023/10/13 08:32:13;;;;;;;13.05;4.95;;;19.10;99.90;;;;;;5015114;28;20104;-93
2023/10/13 08:48:14;;;;;;;12.40;4.90;;;19.70;99.90;;;;;;5007563;28;20049;-92
2023/10/13 09:04:20;;;;;;;14.57;4.78;;;20.00;99.90;;;;;;5015683;28;20025;-91
2023/10/13 09:06:48;;;;;;;12.23;4.85;;;20.00;99.90;;;;;;5015975;28;20029;-92
2023/10/13 09:12:10;;;;;;;14.73;5.15;;;20.10;99.90;;;;;;5015852;28;20509;-92
2023/10/13 09:14:44;;;;;;;11.30;4.32;;;20.20;99.90;;;;;;4998225;28;20025;-93
2023/10/13 09:17:34;;;;;;;10.95;3.97;;;20.20;99.90;;;;;;4996913;28;20018;-90
2023/10/13 09:22:54;;;;;;;10.55;3.45;;;20.30;99.90;;;;;;5015984;28;20052;-91
2023/10/13 09:25:22;;;;;;;12.00;4.18;;;20.40;99.90;;;;;;4997294;28;20049;-92
2023/10/13 09:27:53;;;;;;;12.60;3.70;;;20.30;99.90;;;;;;4996203;28;20037;-92
2023/10/13 09:30:20;;;;;;;14.52;4.43;;;20.30;99.90;;;;;;4995826;28;20085;-92
2023/10/13 09:32:48;;;;;;;10.98;4.30;;;20.30;99.90;;;;;;4994556;28;20065;-91
2023/10/13 09:35:27;;;;;;;13.05;4.13;;;20.30;99.90;;;;;;4986708;28;20386;-91
2023/10/13 09:37:56;;;;;;;14.70;4.28;;;20.30;99.90;;;;;;4991783;28;20453;-91
2023/10/13 09:40:25;;;;;;;11.57;4.38;;;20.40;99.90;;;;;;4991760;28;20045;-92
2023/10/13 09:42:56;;;;;;;14.50;4.68;;;20.30;99.90;;;;;;4992094;28;20067;-92
2023/10/13 09:45:40;;;;;;;13.07;3.75;;;20.40;99.90;;;;;;4996061;28;20053;-91
2023/10/13 09:48:16;;;;;;;12.00;4.03;;;20.50;99.90;;;;;;4986761;28;20076;-90
2023/10/13 09:50:45;;;;;;;8.30;3.78;;;20.50;99.90;;;;;;4991891;28;20106;-91
2023/10/13 09:53:14;;;;;;;11.05;3.67;;;20.60;99.90;;;;;;4997131;28;20109;-91
2023/10/13 09:55:51;;;;;;;14.02;4.53;;;20.60;99.90;;;;;;4990497;28;20056;-92
2023/10/13 09:58:18;;;;;;;11.32;3.95;;;20.70;99.90;;;;;;4994013;28;20042;-91
2023/10/13 10:00:57;;;;;;;12.02;3.78;;;20.80;99.90;;;;;;4994285;28;20164;-91
2023/10/13 10:06:18;;;;;;;15.73;5.00;;;20.80;99.90;;;;;;5014471;28;20046;-90
2023/10/13 10:08:50;;;;;;;9.68;4.10;;;20.80;99.90;;;;;;4991861;28;20068;-90
2023/10/13 10:12:00;;;;;;;15.15;5.53;;;20.90;99.90;;;;;;4985362;28;20030;-89
2023/10/13 10:14:56;;;;;;;12.45;4.13;;;20.90;99.90;;;;;;4990880;28;20049;-91
2023/10/13 10:17:22;;;;;;;14.20;4.03;;;20.90;99.90;;;;;;4994028;28;20029;-91
2023/10/13 10:19:55;;;;;;;14.25;4.35;;;20.90;99.90;;;;;;4990771;28;20084;-90
2023/10/13 10:22:35;;;;;;;12.85;3.83;;;21.00;99.90;;;;;;4989761;28;20557;-92
2023/10/13 10:25:03;;;;;;;14.75;4.85;;;20.90;99.90;;;;;;4991892;28;20034;-91
2023/10/13 10:27:30;;;;;;;10.93;3.38;;;20.90;99.90;;;;;;4994140;28;20116;-91
2023/10/13 10:29:57;;;;;;;11.38;3.85;;;20.90;99.90;;;;;;4989240;28;20089;-91
2023/10/13 10:32:44;;;;;;;16.92;5.03;;;20.90;99.90;;;;;;4989917;28;20030;-91
2023/10/13 10:35:20;;;;;;;9.32;4.05;;;20.90;99.90;;;;;;4983181;28;20026;-90
2023/10/13 10:37:49;;;;;;;10.10;4.38;;;20.80;99.90;;;;;;4994728;28;20033;-92
2023/10/13 10:40:46;;;;;;;11.60;4.22;;;20.70;99.90;;;;;;4985829;28;20034;-91
2023/10/13 10:43:08;;;;;;;13.63;4.15;;;20.80;99.90;;;;;;4995109;28;20041;-89
2023/10/13 10:45:36;;;;;;;10.13;4.10;;;20.80;99.90;;;;;;4995129;28;20025;-91
2023/10/13 10:48:17;;;;;;;13.32;3.92;;;20.90;99.90;;;;;;4985182;28;20443;-91
2023/10/13 10:50:44;;;;;;;11.13;4.30;;;20.90;99.90;;;;;;4983581;28;20030;-90
2023/10/13 10:53:10;;;;;;;14.15;5.07;;;21.00;99.90;;;;;;4992407;28;20421;-92
2023/10/13 10:55:38;;;;;;;13.18;4.70;;;21.00;99.90;;;;;;4989850;28;20076;-90
2023/10/13 10:58:28;;;;;;;16.42;4.68;;;21.10;99.90;;;;;;4996846;28;20041;-91
2023/10/13 11:01:10;;;;;;;14.15;4.72;;;21.10;99.90;;;;;;4998399;28;20038;-91
2023/10/13 11:03:41;;;;;;;15.98;4.68;;;21.20;99.90;;;;;;4997731;28;20044;-91
2023/10/13 11:06:16;;;;;;;13.45;4.32;;;21.30;99.90;;;;;;4998235;28;20038;-90
2023/10/13 11:08:43;;;;;;;12.75;4.57;;;21.40;99.90;;;;;;5009690;28;20032;-92
2023/10/13 11:11:17;;;;;;;14.60;4.60;;;21.50;99.90;;;;;;4998124;28;20058;-90
2023/10/13 11:14:26;;;;;;;15.82;3.83;;;21.50;99.90;;;;;;4998142;28;20030;-90
2023/10/13 11:16:34;;;;;;;14.23;4.35;;;21.50;99.90;;;;;;5004372;28;20041;-91
2023/10/13 11:19:05;;;;;;;18.92;4.60;;;21.50;99.90;;;;;;4998133;28;20026;-91
2023/10/13 11:21:31;;;;;;;17.88;4.28;;;21.50;99.90;;;;;;5002480;28;20038;-90
2023/10/13 11:24:08;;;;;;;12.55;4.55;;;21.50;99.90;;;;;;4995845;28;20025;-89
2023/10/13 11:26:50;;;;;;;11.13;4.65;;;21.50;99.90;;;;;;4997999;28;20038;-90
2023/10/13 11:29:19;;;;;;;13.70;5.00;;;21.50;99.90;;;;;;4977596;28;20735;-91
2023/10/13 11:31:46;;;;;;;12.02;3.78;;;21.40;99.90;;;;;;4993325;28;20085;-90
2023/10/13 11:34:16;;;;;;;23.00;4.35;;;21.50;99.90;;;;;;4990999;28;20072;-92
2023/10/13 11:36:42;;;;;;;13.18;4.35;;;21.40;99.90;;;;;;5012538;28;20026;-89
2023/10/13 11:39:07;;;;;;;17.50;3.95;;;21.40;99.90;;;;;;4987331;28;20030;-89
2023/10/13 11:41:45;;;;;;;12.48;4.55;;;21.40;99.90;;;;;;4997809;28;20190;-88
2023/10/13 11:44:23;;;;;;;17.75;4.57;;;21.40;99.90;;;;;;4988964;28;20030;-89
2023/10/13 11:46:55;;;;;;;15.30;4.50;;;21.50;99.90;;;;;;4995502;28;20022;-88
2023/10/13 11:49:58;;;;;;;10.57;4.28;;;21.50;99.90;;;;;;4977650;28;20022;-89
2023/10/13 11:52:16;;;;;;;10.07;4.65;;;21.50;99.90;;;;;;5010431;28;20040;-89
2023/10/13 11:54:42;;;;;;;14.73;4.63;;;21.50;99.90;;;;;;4994178;28;20041;-89
2023/10/13 11:57:08;;;;;;;21.85;6.60;;;21.50;99.90;;;;;;4991828;28;20411;-88
2023/10/13 11:59:40;;;;;;;11.45;4.15;;;21.60;99.90;;;;;;4984957;28;20521;-89
2023/10/13 12:04:54;;;;;;;10.23;4.05;;;21.80;99.90;;;;;;5009523;28;20032;-89
2023/10/13 12:07:26;;;;;;;14.20;4.78;;;22.00;99.90;;;;;;4995141;28;20889;-89
2023/10/13 12:10:03;;;;;;;10.82;4.05;;;22.10;99.90;;;;;;4990417;28;20048;-89
2023/10/13 12:12:40;;;;;;;13.48;4.25;;;22.30;99.90;;;;;;4987334;28;20088;-90
2023/10/13 12:15:13;;;;;;;13.30;4.20;;;22.40;99.90;;;;;;5011937;28;20444;-87
2023/10/13 12:17:44;;;;;;;14.57;4.97;;;22.40;99.90;;;;;;4977517;28;20030;-88
2023/10/13 12:20:10;;;;;;;15.77;4.65;;;22.40;99.90;;;;;;4985108;28;20022;-89
2023/10/13 12:22:39;;;;;;;15.70;4.82;;;22.50;99.90;;;;;;4991400;28;20092;-88
2023/10/13 12:25:24;;;;;;;17.08;4.28;;;22.50;99.90;;;;;;4995537;28;20022;-90
2023/10/13 12:27:55;;;;;;;16.65;4.47;;;22.50;99.90;;;;;;4996605;28;20029;-89
2023/10/13 12:30:48;;;;;;;20.40;4.75;;;22.50;99.90;;;;;;4996538;28;20052;-88
2023/10/13 12:33:16;;;;;;;11.57;4.38;;;22.50;99.90;;;;;;5013997;28;20414;-88
2023/10/13 12:38:36;;;;;;;16.95;4.85;;;22.50;99.90;;;;;;4996193;28;20092;-88
2023/10/13 12:49:38;;;;;;;16.33;4.85;;;22.40;99.90;;;;;;5013855;28;20091;-87
2023/10/13 12:52:03;;;;;;;17.90;4.90;;;22.40;99.90;;;;;;5013664;28;20034;-88
2023/10/13 12:54:35;;;;;;;20.70;5.22;;;22.30;99.90;;;;;;4985353;28;20026;-87
2023/10/13 12:57:02;;;;;;;14.50;4.90;;;22.30;99.90;;;;;;4984266;28;20030;-88
2023/10/13 12:59:28;;;;;;;14.93;4.35;;;22.40;99.90;;;;;;4977607;28;20065;-88
2023/10/13 13:01:53;;;;;;;12.23;4.57;;;22.40;99.90;;;;;;4982722;28;20076;-88
2023/10/13 13:04:25;;;;;;;12.32;3.88;;;22.50;99.90;;;;;;4995742;28;20022;-88
2023/10/13 13:06:53;;;;;;;;;;;22.50;99.90;;;;;;4987580;28;20493;-87
2023/10/13 13:09:25;;;;;;;16.65;4.97;;;22.50;99.90;;;;;;4992705;28;19909;-87
2023/10/13 13:11:57;;;;;;;;;;;22.50;99.90;;;;;;4989374;28;20025;-87
2023/10/13 13:14:28;;;;;;;11.90;3.87;;;22.50;99.90;;;;;;4977849;28;19909;-88
2023/10/13 13:16:55;;;;;;;15.80;5.00;;;22.50;99.90;;;;;;4989002;28;20344;-87
2023/10/13 13:19:25;;;;;;;12.73;4.78;;;22.50;99.90;;;;;;4990991;28;20026;-88
2023/10/13 13:21:51;;;;;;;12.93;4.40;;;22.60;99.90;;;;;;4994083;28;20123;-87
2023/10/13 13:24:16;;;;;;;10.00;3.83;;;22.50;99.90;;;;;;4997068;28;20026;-88
2023/10/13 13:26:42;;;;;;;13.35;3.90;;;22.50;99.90;;;;;;4990175;28;20026;-88
2023/10/13 13:29:10;;;;;;;13.95;4.63;;;22.70;99.90;;;;;;5014380;28;20537;-88
2023/10/13 13:31:40;;;;;;;13.68;4.10;;;22.60;99.90;;;;;;4991275;28;20061;-87
2023/10/13 13:34:09;;;;;;;10.05;3.40;;;22.60;99.90;;;;;;4994943;28;20121;-88
2023/10/13 13:36:35;;;;;;;14.45;3.95;;;22.60;99.90;;;;;;4995028;28;20096;-87
2023/10/13 13:39:01;;;;;;;14.20;3.88;;;22.50;99.90;;;;;;4986047;28;20030;-87
2023/10/13 13:41:27;;;;;;;13.85;4.18;;;22.60;99.90;;;;;;4994428;28;20480;-88
2023/10/13 13:43:56;;;;;;;9.90;3.83;;;22.50;99.90;;;;;;4996280;28;20041;-87
2023/10/13 13:46:32;;;;;;;11.90;3.53;;;22.40;99.90;;;;;;4992508;28;20470;-88
2023/10/13 13:48:59;;;;;;;14.07;3.60;;;22.40;99.90;;;;;;4989190;28;20026;-88
2023/10/13 13:51:28;;;;;;;15.98;3.17;;;22.40;99.90;;;;;;4994687;28;20041;-88
2023/10/13 13:53:55;;;;;;;18.25;5.57;;;22.40;99.90;;;;;;4984080;28;20030;-89
2023/10/13 13:56:25;;;;;;;17.30;3.80;;;22.40;99.90;;;;;;4997239;28;20030;-89
2023/10/13 13:58:51;;;;;;;11.68;3.13;;;22.40;99.90;;;;;;4995357;28;20026;-89
2023/10/13 14:01:21;;;;;;;13.07;3.30;;;22.40;99.90;;;;;;4995938;28;20038;-90
2023/10/13 14:03:50;;;;;;;14.90;3.90;;;22.40;99.90;;;;;;4997277;28;20478;-88
2023/10/13 14:06:23;;;;;;;15.18;3.38;;;22.40;99.90;;;;;;4994696;28;20021;-90
2023/10/13 14:08:50;;;;;;;19.42;3.95;;;22.40;99.90;;;;;;4996167;28;20387;-89
2023/10/13 14:14:04;;;;;;;13.70;3.45;;;22.40;99.90;;;;;;5006024;28;20131;-88
2023/10/13 14:16:33;;;;;;;11.05;3.55;;;22.40;99.90;;;;;;4995133;28;20061;-89
2023/10/13 14:19:01;;;;;;;14.30;2.72;;;22.30;99.90;;;;;;4996343;28;20560;-88
2023/10/13 14:21:27;;;;;;;13.25;3.47;;;22.30;99.90;;;;;;4995855;28;20552;-88
2023/10/13 14:23:53;;;;;;;12.93;3.63;;;22.40;99.90;;;;;;4999345;28;20026;-88
2023/10/13 14:26:21;;;;;;;11.70;2.90;;;22.30;99.90;;;;;;4998053;28;20034;-87
2023/10/13 14:29:05;;;;;;;15.15;3.95;;;22.20;99.90;;;;;;5000478;28;20033;-89
2023/10/13 14:31:31;;;;;;;10.90;3.22;;;22.20;99.90;;;;;;5000191;28;20053;-88
2023/10/13 14:33:57;;;;;;;10.10;3.35;;;22.20;99.90;;;;;;5000502;28;20030;-88
2023/10/13 14:36:23;;;;;;;15.98;3.33;;;22.30;99.90;;;;;;4993217;28;20041;-89
2023/10/13 14:38:49;;;;;;;9.85;2.78;;;22.30;99.90;;;;;;5016855;28;20061;-89
2023/10/13 14:41:18;;;;;;;15.45;3.20;;;22.30;99.90;;;;;;4983000;28;20050;-89
2023/10/13 14:43:47;;;;;;;9.52;2.53;;;22.30;99.90;;;;;;5000925;28;20393;-89
2023/10/13 14:46:17;;;;;;;12.85;3.30;;;22.30;99.90;;;;;;5008416;28;20065;-89
2023/10/13 14:48:43;;;;;;;12.35;2.90;;;22.30;99.90;;;;;;4988440;28;20045;-89
2023/10/13 14:51:12;;;;;;;10.07;3.40;;;22.20;99.90;;;;;;4999839;28;20510;-88
2023/10/13 14:53:43;;;;;;;13.05;3.35;;;22.20;99.90;;;;;;5017566;28;20536;-88
2023/10/13 14:56:15;;;;;;;12.77;3.25;;;22.10;99.90;;;;;;4998457;28;20501;-89
2023/10/13 14:58:44;;;;;;;;;;;22.10;99.90;;;;;;5011142;28;20026;-89
2023/10/13 15:01:17;;;;;;;9.75;2.70;;;22.10;99.90;;;;;;4996472;28;20273;-89
2023/10/13 15:03:47;;;;;;;11.70;2.63;;;22.00;99.90;;;;;;5016863;28;20032;-89
2023/10/13 15:06:24;;;;;;;15.77;2.80;;;22.00;99.90;;;;;;4995076;28;20018;-89
2023/10/13 15:08:51;;;;;;;12.13;2.97;;;22.00;99.90;;;;;;4998718;28;20030;-89
2023/10/13 15:11:19;;;;;;;12.77;3.45;;;22.00;99.90;;;;;;4997014;28;20022;-88
2023/10/13 15:13:45;;;;;;;10.57;3.80;;;21.90;99.90;;;;;;4998863;28;20076;-89
2023/10/13 15:16:18;;;;;;;11.20;4.47;;;21.80;99.90;;;;;;4990749;28;20026;-89
2023/10/13 15:18:45;;;;;;;12.57;3.75;;;21.80;99.90;;;;;;4996273;28;20029;-90
2023/10/13 15:21:10;;;;;;;10.80;3.03;;;21.80;99.90;;;;;;4997699;28;20049;-89
2023/10/13 15:23:42;;;;;;;14.32;3.58;;;21.70;99.90;;;;;;4993625;28;20014;-89
2023/10/13 15:26:14;;;;;;;10.68;3.63;;;21.60;99.90;;;;;;4997188;28;20061;-89
2023/10/13 15:28:48;;;;;;;;;;;21.50;99.90;;;;;;4997253;28;20134;-88
2023/10/13 15:34:06;;;;;;;11.13;3.72;;;21.20;99.90;;;;;;5012442;28;20042;-89
2023/10/13 15:36:33;;;;;;;15.65;3.97;;;21.10;99.90;;;;;;5000683;28;20023;-87
2023/10/13 15:38:58;;;;;;;13.38;3.67;;;21.10;99.90;;;;;;4985978;28;20541;-88
2023/10/13 15:41:25;;;;;;;13.27;3.83;;;20.90;99.90;;;;;;4998432;28;20136;-88
2023/10/13 15:43:51;;;;;;;9.60;3.60;;;20.90;99.90;;;;;;4997623;28;20034;-88
2023/10/13 15:46:20;;;;;;;12.48;4.10;;;20.80;99.90;;;;;;4993760;28;20034;-88
2023/10/13 15:48:46;;;;;;;10.10;3.70;;;20.80;99.90;;;;;;4995145;28;20022;-88
2023/10/13 15:51:12;;;;;;;9.20;4.13;;;20.70;99.90;;;;;;4985743;28;20113;-89
2023/10/13 15:53:38;;;;;;;11.63;3.72;;;20.60;99.90;;;;;;4996738;28;20049;-88